createdAt,value
2024-02-17T00:01:32.914Z,12.77
2024-02-17T00:06:57.453Z,13.17
2024-02-17T00:12:20.591Z,13.20
2024-02-17T00:17:45.041Z,13.06
2024-02-17T00:23:08.053Z,12.33
2024-02-17T00:28:32.301Z,12.84
2024-02-17T00:34:02.549Z,12.59
2024-02-17T00:39:38.078Z,13.03
2024-02-17T00:45:01.260Z,12.67
2024-02-17T00:50:33.174Z,12.92
2024-02-17T00:55:56.313Z,13.16
2024-02-17T01:01:26.571Z,12.92
2024-02-17T01:06:58.028Z,12.14
2024-02-17T01:12:21.146Z,13.10
2024-02-17T01:17:44.200Z,12.65
2024-02-17T01:23:09.957Z,13.31
2024-02-17T01:28:32.987Z,13.40
2024-02-17T01:33:56.173Z,13.44
2024-02-17T01:39:21.479Z,13.21
2024-02-17T01:44:44.764Z,13.24
2024-02-17T01:50:08.530Z,13.39
2024-02-17T01:55:33.435Z,13.34
2024-02-17T02:01:01.097Z,13.20
2024-02-17T02:06:25.480Z,12.82
2024-02-17T02:11:52.963Z,13.33
2024-02-17T02:17:20.305Z,13.18
2024-02-17T02:22:46.144Z,11.67
2024-02-17T02:28:10.506Z,12.86
2024-02-17T02:33:33.774Z,12.98
2024-02-17T02:38:57.950Z,13.22
2024-02-17T02:44:22.310Z,13.44
2024-02-17T02:49:45.441Z,13.06
2024-02-17T02:55:09.100Z,13.37
2024-02-17T03:00:33.623Z,13.37
2024-02-17T03:05:56.814Z,13.34
2024-02-17T03:11:19.802Z,13.37
2024-02-17T03:16:45.319Z,13.47
2024-02-17T03:22:08.593Z,13.14
2024-02-17T03:27:31.747Z,12.98
2024-02-17T03:32:57.369Z,13.50
2024-02-17T03:38:21.810Z,13.44
2024-02-17T03:43:47.076Z,13.33
2024-02-17T03:49:12.504Z,13.47
2024-02-17T03:54:35.660Z,13.20
2024-02-17T03:59:58.820Z,13.48
2024-02-17T04:05:23.366Z,13.02
2024-02-17T04:10:46.744Z,13.21
2024-02-17T04:16:10.362Z,13.28
2024-02-17T04:21:35.912Z,13.18
2024-02-17T04:26:59.337Z,12.91
2024-02-17T04:32:22.302Z,13.32
2024-02-17T04:37:46.653Z,12.95
2024-02-17T04:43:09.652Z,12.33
2024-02-17T04:48:32.698Z,12.49
2024-02-17T04:53:57.256Z,12.53
2024-02-17T04:59:22.746Z,11.87
2024-02-17T05:04:45.771Z,12.61
2024-02-17T05:10:10.845Z,11.95
2024-02-17T05:15:33.859Z,12.45
2024-02-17T05:20:56.838Z,12.73
2024-02-17T05:26:23.988Z,12.66
2024-02-17T05:31:47.030Z,12.51
2024-02-17T05:37:10.859Z,12.29
2024-02-17T05:42:36.001Z,13.02
2024-02-17T05:47:59.251Z,12.76
2024-02-17T05:53:22.236Z,12.99
2024-02-17T05:58:46.802Z,12.60
2024-02-17T06:04:10.462Z,13.21
2024-02-17T06:09:33.581Z,12.73
2024-02-17T06:14:57.894Z,12.72
2024-02-17T06:20:38.385Z,13.20
2024-02-17T06:26:01.353Z,13.19
2024-02-17T06:31:27.725Z,13.00
2024-02-17T06:36:50.851Z,12.87
2024-02-17T06:42:14.069Z,12.57
2024-02-17T06:47:38.509Z,12.82
2024-02-17T06:53:05.358Z,12.76
2024-02-17T06:58:28.328Z,12.12
2024-02-17T07:03:52.794Z,12.72
2024-02-17T07:09:25.563Z,12.50
2024-02-17T07:14:49.716Z,12.76
2024-02-17T07:20:14.204Z,12.44
2024-02-17T07:25:37.310Z,12.36
2024-02-17T07:31:00.468Z,12.47
2024-02-17T07:36:26.708Z,12.74
2024-02-17T07:41:49.823Z,12.66
2024-02-17T07:47:12.950Z,13.01
2024-02-17T07:52:37.743Z,13.43
2024-02-17T07:58:00.754Z,13.17
2024-02-17T08:03:24.883Z,13.43
2024-02-17T08:08:49.365Z,13.20
2024-02-17T08:14:17.234Z,12.90
2024-02-17T08:19:40.638Z,13.00
2024-02-17T08:25:10.264Z,12.39
2024-02-17T08:30:33.432Z,13.06
2024-02-17T08:35:56.557Z,13.25
2024-02-17T08:41:22.303Z,13.02
2024-02-17T08:46:51.418Z,13.28
2024-02-17T08:52:15.836Z,13.24
2024-02-17T08:57:40.437Z,13.21
2024-02-17T09:03:03.588Z,13.67
2024-02-17T09:08:26.592Z,13.58
2024-02-17T09:13:55.589Z,13.29
2024-02-17T09:19:24.550Z,13.71
2024-02-17T09:24:48.679Z,13.78
2024-02-17T09:30:15.083Z,13.58
2024-02-17T09:35:41.395Z,13.23
2024-02-17T09:41:04.997Z,13.53
2024-02-17T09:46:30.915Z,13.39
2024-02-17T09:51:54.911Z,13.64
2024-02-17T09:57:19.404Z,13.57
2024-02-17T10:02:45.005Z,13.36
2024-02-17T10:08:16.563Z,12.79
2024-02-17T10:13:41.037Z,13.63
2024-02-17T10:19:05.730Z,13.71
2024-02-17T10:24:29.087Z,13.52
2024-02-17T10:29:52.170Z,13.89
2024-02-17T10:35:18.032Z,13.73
2024-02-17T10:40:41.242Z,13.21
2024-02-17T10:46:10.260Z,13.76
2024-02-17T10:51:44.528Z,13.75
2024-02-17T10:57:12.859Z,13.80
2024-02-17T11:02:44.334Z,13.67
2024-02-17T11:08:09.513Z,13.64
2024-02-17T11:13:33.036Z,14.07
2024-02-17T11:18:57.677Z,13.63
2024-02-17T11:24:23.940Z,13.88
2024-02-17T11:29:47.116Z,14.27
2024-02-17T11:35:12.511Z,13.76
2024-02-17T11:40:41.064Z,13.50
2024-02-17T11:46:05.632Z,13.70
2024-02-17T11:51:30.285Z,12.70
2024-02-17T11:56:55.899Z,14.00
2024-02-17T12:02:20.246Z,13.66
2024-02-17T12:07:43.975Z,14.09
2024-02-17T12:13:08.516Z,14.08
2024-02-17T12:18:32.732Z,13.90
2024-02-17T12:23:56.495Z,14.20
2024-02-17T12:29:21.074Z,14.36
2024-02-17T12:34:44.183Z,14.42
2024-02-17T12:40:11.454Z,14.02
2024-02-17T12:45:36.583Z,14.27
2024-02-17T12:50:59.750Z,14.38
2024-02-17T12:56:25.544Z,14.27
2024-02-17T13:01:50.438Z,13.60
2024-02-17T13:07:13.615Z,13.93
2024-02-17T13:12:44.810Z,13.69
2024-02-17T13:18:09.724Z,14.23
2024-02-17T13:23:33.364Z,13.90
2024-02-17T13:28:58.021Z,13.84
2024-02-17T13:34:26.888Z,14.33
2024-02-17T13:39:50.295Z,13.08
2024-02-17T13:45:14.064Z,13.84
2024-02-17T13:50:38.874Z,14.58
2024-02-17T13:56:02.177Z,14.17
2024-02-17T14:01:26.436Z,13.77
2024-02-17T14:06:51.555Z,14.23
2024-02-17T14:12:16.879Z,14.53
2024-02-17T14:17:40.030Z,14.86
2024-02-17T14:23:04.599Z,14.72
2024-02-17T14:28:28.411Z,14.63
2024-02-17T14:33:51.477Z,14.55
2024-02-17T14:39:15.991Z,14.79
2024-02-17T14:44:42.468Z,14.32
2024-02-17T14:50:08.448Z,13.93
2024-02-17T14:55:32.883Z,14.34
2024-02-17T15:00:55.928Z,14.17
2024-02-17T15:06:22.070Z,14.04
2024-02-17T15:11:51.897Z,14.00
2024-02-17T15:17:15.161Z,14.56
2024-02-17T15:22:38.699Z,14.16
2024-02-17T15:28:06.169Z,14.16
2024-02-17T15:33:31.280Z,14.63
2024-02-17T15:38:54.984Z,13.87
2024-02-17T15:44:20.719Z,13.89
2024-02-17T15:49:51.050Z,14.61
2024-02-17T15:55:14.330Z,14.81
2024-02-17T16:00:42.715Z,14.06
2024-02-17T16:06:11.118Z,14.30
2024-02-17T16:11:46.496Z,14.83
2024-02-17T16:17:11.146Z,14.32
2024-02-17T16:22:36.814Z,14.65
2024-02-17T16:27:59.870Z,14.61
2024-02-17T16:33:26.402Z,14.42
2024-02-17T16:39:06.654Z,14.24
2024-02-17T16:44:30.791Z,14.27
2024-02-17T16:49:55.599Z,14.18
2024-02-17T16:55:19.762Z,14.62
2024-02-17T17:00:44.332Z,14.57
2024-02-17T17:06:08.928Z,14.06
2024-02-17T17:11:32.439Z,14.23
2024-02-17T17:16:57.452Z,13.75
2024-02-17T17:22:39.278Z,14.27
2024-02-17T17:28:06.853Z,14.42
2024-02-17T17:33:30.233Z,13.89
2024-02-17T17:38:55.009Z,13.80
2024-02-17T17:44:18.162Z,14.11
2024-02-17T17:49:41.308Z,14.03
2024-02-17T17:55:09.745Z,13.78
2024-02-17T18:00:33.649Z,13.58
2024-02-17T18:05:57.152Z,13.56
2024-02-17T18:11:21.587Z,13.42
2024-02-17T18:16:44.766Z,13.50
2024-02-17T18:22:11.877Z,13.57
2024-02-17T18:27:37.225Z,13.32
2024-02-17T18:33:01.502Z,13.27
2024-02-17T18:38:25.883Z,13.14
2024-02-17T18:43:50.601Z,12.90
2024-02-17T18:49:14.720Z,12.55
2024-02-17T18:54:37.950Z,12.63
2024-02-17T19:00:02.323Z,12.60
2024-02-17T19:05:26.548Z,12.59
2024-02-17T19:10:51.228Z,12.26
2024-02-17T19:16:16.402Z,11.54
2024-02-17T19:21:39.605Z,12.85
2024-02-17T19:27:05.937Z,12.15
2024-02-17T19:32:30.995Z,12.61
2024-02-17T19:37:55.160Z,12.62
2024-02-17T19:43:18.401Z,12.53
2024-02-17T19:48:42.927Z,12.34
2024-02-17T19:54:06.233Z,12.42
2024-02-17T19:59:29.493Z,12.49
2024-02-17T20:04:53.991Z,12.19
2024-02-17T20:10:17.766Z,12.38
2024-02-17T20:15:41.721Z,11.98
2024-02-17T20:21:07.174Z,11.74
2024-02-17T20:26:31.247Z,12.41
2024-02-17T20:31:54.441Z,11.67
2024-02-17T20:37:19.902Z,11.78
2024-02-17T20:42:44.328Z,12.06
2024-02-17T20:48:09.767Z,12.48
2024-02-17T20:53:35.335Z,12.54
2024-02-17T20:59:13.106Z,12.77
2024-02-17T21:04:43.660Z,12.82
2024-02-17T21:10:09.306Z,12.99
2024-02-17T21:15:32.548Z,12.75
2024-02-17T21:20:55.737Z,13.09
2024-02-17T21:26:23.334Z,12.20
2024-02-17T21:31:47.622Z,11.99
2024-02-17T21:37:13.227Z,11.83
2024-02-17T21:42:38.132Z,11.61
2024-02-17T21:48:01.395Z,11.77
2024-02-17T21:53:24.888Z,11.61
2024-02-17T21:59:11.265Z,12.03
2024-02-17T22:04:34.362Z,11.99
2024-02-17T22:09:57.472Z,12.12
2024-02-17T22:15:21.729Z,11.84
2024-02-17T22:20:44.801Z,11.87
2024-02-17T22:26:07.897Z,11.99
2024-02-17T22:31:35.118Z,11.88
2024-02-17T22:36:58.157Z,12.10
2024-02-17T22:42:23.411Z,12.10
2024-02-17T22:47:47.864Z,12.03
2024-02-17T22:53:11.278Z,12.78
2024-02-17T22:58:34.369Z,12.55
2024-02-17T23:03:59.419Z,12.41
2024-02-17T23:09:22.416Z,12.88
2024-02-17T23:14:45.357Z,13.04
2024-02-17T23:20:13.684Z,12.97
2024-02-17T23:25:36.772Z,12.90
2024-02-17T23:31:00.413Z,12.85
2024-02-17T23:36:24.935Z,12.81
2024-02-17T23:41:47.850Z,12.96
2024-02-17T23:47:11.046Z,13.08
2024-02-17T23:52:35.422Z,12.95
2024-02-17T23:57:58.501Z,13.04
